SBI7004 UNEE-UNNT
Flight info
| Callsign | SBI7004 |
|---|---|
| Flight time | 0h 29m |
| Altitude | 20000 |
| Route | NATIR1D NATIR NATIR1K |
| Aircraft | E170/M-SDE3GILORVW/S |
Departure
| Time | 2026-05-06 16:42 |
|---|---|
| Airport | Alexei Leonov Kemerovo International Airport (UNEE) |
Arrival
| Time | 2026-05-06 17:12 |
|---|---|
| Airport | Novosibirsk Tolmachevo Airport (UNNT) |
| Time | Latitude | Longitude | Altitude | Speed | Heading |
|---|---|---|---|---|---|
| 2026-05-06 16:19 | 55.27990 | 86.11641 | 880 ft | 0 kts | 324° |
| 2026-05-06 16:34 | 55.27982 | 86.11652 | 881 ft | 2 kts | 324° |
| 2026-05-06 16:34 | 55.27970 | 86.11668 | 881 ft | 2 kts | 324° |
| 2026-05-06 16:35 | 55.27958 | 86.11682 | 881 ft | 2 kts | 324° |
| 2026-05-06 16:35 | 55.27946 | 86.11697 | 881 ft | 2 kts | 324° |
| 2026-05-06 16:35 | 55.27934 | 86.11713 | 881 ft | 2 kts | 324° |
| 2026-05-06 16:35 | 55.27922 | 86.11728 | 881 ft | 2 kts | 324° |
| 2026-05-06 16:36 | 55.27909 | 86.11741 | 881 ft | 2 kts | 349° |
| 2026-05-06 16:36 | 55.27894 | 86.11741 | 881 ft | 2 kts | 14° |
| 2026-05-06 16:36 | 55.27881 | 86.11730 | 881 ft | 2 kts | 40° |
| 2026-05-06 16:36 | 55.27875 | 86.11719 | 881 ft | 1 kts | 55° |
| 2026-05-06 16:37 | 55.27872 | 86.11712 | 881 ft | 0 kts | 54° |
| 2026-05-06 16:38 | 55.27875 | 86.11719 | 881 ft | 4 kts | 54° |
| 2026-05-06 16:39 | 55.27907 | 86.11797 | 881 ft | 9 kts | 54° |
| 2026-05-06 16:39 | 55.27947 | 86.11897 | 881 ft | 10 kts | 55° |
| 2026-05-06 16:39 | 55.27990 | 86.12006 | 881 ft | 11 kts | 55° |
| 2026-05-06 16:39 | 55.28037 | 86.12128 | 881 ft | 12 kts | 56° |
| 2026-05-06 16:40 | 55.28084 | 86.12258 | 881 ft | 10 kts | 72° |
| 2026-05-06 16:40 | 55.28063 | 86.12378 | 881 ft | 11 kts | 126° |
| 2026-05-06 16:40 | 55.28017 | 86.12492 | 881 ft | 12 kts | 125° |
| 2026-05-06 16:40 | 55.27965 | 86.12616 | 881 ft | 13 kts | 131° |
| 2026-05-06 16:41 | 55.27893 | 86.12718 | 881 ft | 13 kts | 142° |
| 2026-05-06 16:41 | 55.27834 | 86.12729 | 881 ft | 9 kts | 227° |
| 2026-05-06 16:41 | 55.27825 | 86.12708 | 881 ft | 0 kts | 234° |
| 2026-05-06 16:41 | 55.27814 | 86.12682 | 881 ft | 6 kts | 234° |
| 2026-05-06 16:42 | 55.27687 | 86.12384 | 881 ft | 66 kts | 233° |
| 2026-05-06 16:42 | 55.27280 | 86.11423 | 881 ft | 128 kts | 234° |
| 2026-05-06 16:42 | 55.26668 | 86.09963 | 1056 ft | 158 kts | 233° |
| 2026-05-06 16:42 | 55.26000 | 86.08396 | 1617 ft | 165 kts | 236° |
| 2026-05-06 16:43 | 55.25359 | 86.06772 | 2337 ft | 166 kts | 238° |
| 2026-05-06 16:43 | 55.24652 | 86.04997 | 2730 ft | 195 kts | 237° |
| 2026-05-06 16:43 | 55.23802 | 86.02950 | 3207 ft | 219 kts | 237° |
| 2026-05-06 16:43 | 55.22854 | 86.00730 | 3860 ft | 237 kts | 236° |
| 2026-05-06 16:44 | 55.21875 | 85.98477 | 4901 ft | 236 kts | 237° |
| 2026-05-06 16:44 | 55.20904 | 85.96262 | 6058 ft | 229 kts | 237° |
| 2026-05-06 16:44 | 55.19967 | 85.94126 | 7073 ft | 224 kts | 237° |
| 2026-05-06 16:44 | 55.19050 | 85.91961 | 7953 ft | 225 kts | 237° |
| 2026-05-06 16:45 | 55.18119 | 85.89763 | 8787 ft | 227 kts | 237° |
| 2026-05-06 16:45 | 55.17188 | 85.87572 | 9598 ft | 229 kts | 237° |
| 2026-05-06 16:45 | 55.16239 | 85.85338 | 10381 ft | 232 kts | 237° |
| 2026-05-06 16:45 | 55.15447 | 85.82927 | 10941 ft | 238 kts | 260° |
| 2026-05-06 16:46 | 55.15416 | 85.79966 | 11411 ft | 251 kts | 275° |
| 2026-05-06 16:46 | 55.15549 | 85.76833 | 11882 ft | 267 kts | 275° |
| 2026-05-06 16:46 | 55.15689 | 85.73536 | 12376 ft | 279 kts | 274° |
| 2026-05-06 16:46 | 55.15831 | 85.70156 | 13040 ft | 285 kts | 274° |
| 2026-05-06 16:47 | 55.15976 | 85.66711 | 13808 ft | 287 kts | 274° |
| 2026-05-06 16:47 | 55.16121 | 85.63220 | 14598 ft | 287 kts | 274° |
| 2026-05-06 16:47 | 55.16262 | 85.59789 | 15334 ft | 289 kts | 274° |
| 2026-05-06 16:47 | 55.16407 | 85.56271 | 16073 ft | 290 kts | 274° |
| 2026-05-06 16:48 | 55.16549 | 85.52776 | 16757 ft | 293 kts | 274° |
| 2026-05-06 16:48 | 55.16694 | 85.49208 | 17447 ft | 295 kts | 274° |
| 2026-05-06 16:48 | 55.16836 | 85.45670 | 18117 ft | 297 kts | 274° |
| 2026-05-06 16:48 | 55.16980 | 85.42062 | 18760 ft | 300 kts | 274° |
| 2026-05-06 16:49 | 55.17124 | 85.38434 | 19415 ft | 302 kts | 274° |
| 2026-05-06 16:49 | 55.17269 | 85.34827 | 19833 ft | 301 kts | 272° |
| 2026-05-06 16:49 | 55.17413 | 85.31089 | 19900 ft | 315 kts | 272° |
| 2026-05-06 16:49 | 55.17562 | 85.27181 | 19923 ft | 336 kts | 273° |
| 2026-05-06 16:50 | 55.17722 | 85.23022 | 19911 ft | 345 kts | 273° |
| 2026-05-06 16:50 | 55.17881 | 85.18824 | 19903 ft | 345 kts | 273° |
| 2026-05-06 16:50 | 55.18039 | 85.14655 | 19896 ft | 344 kts | 273° |
| 2026-05-06 16:50 | 55.18194 | 85.10490 | 19899 ft | 344 kts | 273° |
| 2026-05-06 16:51 | 55.18347 | 85.06351 | 19899 ft | 345 kts | 273° |
| 2026-05-06 16:51 | 55.18500 | 85.02181 | 19904 ft | 346 kts | 273° |
| 2026-05-06 16:51 | 55.18652 | 84.97992 | 19903 ft | 345 kts | 273° |
| 2026-05-06 16:51 | 55.18803 | 84.93789 | 19905 ft | 347 kts | 274° |
| 2026-05-06 16:52 | 55.18952 | 84.89592 | 19902 ft | 347 kts | 274° |
| 2026-05-06 16:52 | 55.19098 | 84.85458 | 19890 ft | 337 kts | 274° |
| 2026-05-06 16:52 | 55.19239 | 84.81432 | 19899 ft | 334 kts | 274° |
| 2026-05-06 16:52 | 55.19379 | 84.77367 | 19896 ft | 334 kts | 274° |
| 2026-05-06 16:53 | 55.19517 | 84.73346 | 19859 ft | 334 kts | 274° |
| 2026-05-06 16:53 | 55.19481 | 84.69285 | 19512 ft | 335 kts | 259° |
| 2026-05-06 16:53 | 55.18876 | 84.65364 | 19221 ft | 335 kts | 256° |
| 2026-05-06 16:53 | 55.18221 | 84.61472 | 18842 ft | 333 kts | 255° |
| 2026-05-06 16:54 | 55.17563 | 84.57622 | 18478 ft | 331 kts | 255° |
| 2026-05-06 16:54 | 55.16909 | 84.53814 | 18118 ft | 330 kts | 255° |
| 2026-05-06 16:54 | 55.16252 | 84.50008 | 17759 ft | 328 kts | 255° |
| 2026-05-06 16:54 | 55.15590 | 84.46182 | 17396 ft | 328 kts | 255° |
| 2026-05-06 16:55 | 55.14932 | 84.42391 | 17035 ft | 327 kts | 255° |
| 2026-05-06 16:55 | 55.14286 | 84.38618 | 16680 ft | 326 kts | 255° |
| 2026-05-06 16:55 | 55.13626 | 84.34835 | 16313 ft | 324 kts | 254° |
| 2026-05-06 16:55 | 55.12962 | 84.31061 | 15962 ft | 324 kts | 254° |
| 2026-05-06 16:56 | 55.12302 | 84.27305 | 15604 ft | 322 kts | 254° |
| 2026-05-06 16:56 | 55.11647 | 84.23570 | 15245 ft | 322 kts | 254° |
| 2026-05-06 16:56 | 55.10992 | 84.19849 | 14895 ft | 322 kts | 254° |
| 2026-05-06 16:56 | 55.10344 | 84.16166 | 14540 ft | 321 kts | 254° |
| 2026-05-06 16:57 | 55.09688 | 84.12450 | 14185 ft | 320 kts | 254° |
| 2026-05-06 16:57 | 55.09039 | 84.08778 | 13838 ft | 319 kts | 254° |
| 2026-05-06 16:57 | 55.08385 | 84.05088 | 13485 ft | 318 kts | 254° |
| 2026-05-06 16:57 | 55.07909 | 84.01334 | 13136 ft | 315 kts | 264° |
| 2026-05-06 16:58 | 55.07679 | 83.97551 | 12799 ft | 314 kts | 264° |
| 2026-05-06 16:58 | 55.07450 | 83.93790 | 12452 ft | 312 kts | 265° |
| 2026-05-06 16:58 | 55.07222 | 83.90076 | 12110 ft | 312 kts | 265° |
| 2026-05-06 16:58 | 55.06992 | 83.86351 | 11767 ft | 310 kts | 265° |
| 2026-05-06 16:59 | 55.06762 | 83.82646 | 11421 ft | 302 kts | 265° |
| 2026-05-06 16:59 | 55.06541 | 83.79114 | 11089 ft | 290 kts | 265° |
| 2026-05-06 16:59 | 55.06327 | 83.75705 | 10771 ft | 278 kts | 265° |
| 2026-05-06 16:59 | 55.06121 | 83.72433 | 10469 ft | 267 kts | 265° |
| 2026-05-06 17:00 | 55.05920 | 83.69245 | 10184 ft | 257 kts | 265° |
| 2026-05-06 17:00 | 55.05728 | 83.66231 | 9907 ft | 248 kts | 265° |
| 2026-05-06 17:00 | 55.05541 | 83.63293 | 9634 ft | 240 kts | 265° |
| 2026-05-06 17:00 | 55.05360 | 83.60463 | 9376 ft | 232 kts | 265° |
| 2026-05-06 17:01 | 55.05182 | 83.57703 | 9129 ft | 229 kts | 265° |
| 2026-05-06 17:01 | 55.05005 | 83.54949 | 8890 ft | 229 kts | 265° |
| 2026-05-06 17:01 | 55.04829 | 83.52228 | 8638 ft | 229 kts | 265° |
| 2026-05-06 17:01 | 55.04651 | 83.49487 | 8393 ft | 228 kts | 265° |
| 2026-05-06 17:02 | 55.04472 | 83.46731 | 8183 ft | 227 kts | 265° |
| 2026-05-06 17:02 | 55.04295 | 83.44019 | 7940 ft | 227 kts | 265° |
| 2026-05-06 17:02 | 55.04115 | 83.41280 | 7692 ft | 226 kts | 265° |
| 2026-05-06 17:02 | 55.03938 | 83.38590 | 7442 ft | 226 kts | 265° |
| 2026-05-06 17:03 | 55.03759 | 83.35879 | 7194 ft | 225 kts | 265° |
| 2026-05-06 17:03 | 55.03567 | 83.33170 | 6943 ft | 224 kts | 260° |
| 2026-05-06 17:03 | 55.03234 | 83.30527 | 6713 ft | 224 kts | 258° |
| 2026-05-06 17:03 | 55.02891 | 83.27899 | 6465 ft | 223 kts | 258° |
| 2026-05-06 17:04 | 55.02549 | 83.25286 | 6223 ft | 222 kts | 258° |
| 2026-05-06 17:04 | 55.02206 | 83.22672 | 5977 ft | 222 kts | 258° |
| 2026-05-06 17:04 | 55.01862 | 83.20057 | 5729 ft | 221 kts | 259° |
| 2026-05-06 17:04 | 55.01521 | 83.17465 | 5492 ft | 221 kts | 259° |
| 2026-05-06 17:05 | 55.01175 | 83.14848 | 5248 ft | 221 kts | 259° |
| 2026-05-06 17:05 | 55.00832 | 83.12254 | 5006 ft | 220 kts | 259° |
| 2026-05-06 17:05 | 55.00491 | 83.09684 | 4767 ft | 219 kts | 259° |
| 2026-05-06 17:05 | 55.00149 | 83.07108 | 4533 ft | 217 kts | 259° |
| 2026-05-06 17:06 | 54.99809 | 83.04551 | 4298 ft | 217 kts | 259° |
| 2026-05-06 17:06 | 54.99468 | 83.01992 | 4059 ft | 216 kts | 259° |
| 2026-05-06 17:06 | 54.99126 | 82.99430 | 3819 ft | 215 kts | 259° |
| 2026-05-06 17:06 | 54.99046 | 82.96910 | 3586 ft | 210 kts | 291° |
| 2026-05-06 17:07 | 54.99799 | 82.94860 | 3431 ft | 199 kts | 310° |
| 2026-05-06 17:07 | 55.00682 | 82.93044 | 3222 ft | 191 kts | 310° |
| 2026-05-06 17:07 | 55.01525 | 82.91335 | 3025 ft | 183 kts | 311° |
| 2026-05-06 17:07 | 55.02334 | 82.89710 | 2859 ft | 172 kts | 311° |
| 2026-05-06 17:08 | 55.03021 | 82.88065 | 2606 ft | 167 kts | 289° |
| 2026-05-06 17:08 | 55.03061 | 82.86115 | 2433 ft | 159 kts | 270° |
| 2026-05-06 17:08 | 55.02977 | 82.84219 | 2240 ft | 151 kts | 265° |
| 2026-05-06 17:08 | 55.02813 | 82.82518 | 2081 ft | 142 kts | 265° |
| 2026-05-06 17:09 | 55.02663 | 82.80823 | 1882 ft | 142 kts | 266° |
| 2026-05-06 17:09 | 55.02516 | 82.79177 | 1670 ft | 130 kts | 265° |
| 2026-05-06 17:09 | 55.02383 | 82.77695 | 1483 ft | 121 kts | 265° |
| 2026-05-06 17:09 | 55.02256 | 82.76260 | 1336 ft | 121 kts | 265° |
| 2026-05-06 17:10 | 55.02125 | 82.74803 | 1185 ft | 122 kts | 265° |
| 2026-05-06 17:10 | 55.01993 | 82.73334 | 1022 ft | 124 kts | 264° |
| 2026-05-06 17:10 | 55.01860 | 82.71845 | 854 ft | 123 kts | 264° |
| 2026-05-06 17:10 | 55.01726 | 82.70373 | 689 ft | 123 kts | 263° |
| 2026-05-06 17:11 | 55.01594 | 82.68906 | 508 ft | 123 kts | 263° |
| 2026-05-06 17:11 | 55.01457 | 82.67435 | 368 ft | 121 kts | 263° |
| 2026-05-06 17:11 | 55.01346 | 82.66167 | 351 ft | 84 kts | 262° |
| 2026-05-06 17:11 | 55.01275 | 82.65404 | 351 ft | 51 kts | 262° |
| 2026-05-06 17:12 | 55.01220 | 82.64774 | 350 ft | 53 kts | 261° |
| 2026-05-06 17:12 | 55.01178 | 82.64329 | 351 ft | 25 kts | 261° |
| 2026-05-06 17:12 | 55.01152 | 82.64053 | 349 ft | 11 kts | 255° |
| 2026-05-06 17:12 | 55.01149 | 82.64037 | 349 ft | 0 kts | 244° |
| 2026-05-06 17:13 | 55.01151 | 82.64046 | 349 ft | 1 kts | 244° |
| 2026-05-06 17:13 | 55.01144 | 82.64027 | 349 ft | 11 kts | 234° |
| 2026-05-06 17:13 | 55.01060 | 82.63997 | 350 ft | 13 kts | 170° |
| 2026-05-06 17:13 | 55.00994 | 82.64053 | 351 ft | 10 kts | 114° |
| 2026-05-06 17:14 | 55.00979 | 82.64179 | 351 ft | 11 kts | 100° |
| 2026-05-06 17:14 | 55.00961 | 82.64320 | 351 ft | 12 kts | 105° |
| 2026-05-06 17:14 | 55.00940 | 82.64475 | 351 ft | 13 kts | 103° |
| 2026-05-06 17:14 | 55.00917 | 82.64646 | 351 ft | 15 kts | 103° |
| 2026-05-06 17:15 | 55.00893 | 82.64831 | 351 ft | 16 kts | 103° |
| 2026-05-06 17:15 | 55.00872 | 82.65031 | 351 ft | 17 kts | 89° |
| 2026-05-06 17:15 | 55.00883 | 82.65248 | 352 ft | 18 kts | 89° |
| 2026-05-06 17:15 | 55.00901 | 82.65465 | 354 ft | 18 kts | 81° |
| 2026-05-06 17:16 | 55.00921 | 82.65688 | 355 ft | 18 kts | 82° |
| 2026-05-06 17:16 | 55.00940 | 82.65913 | 356 ft | 19 kts | 82° |
| 2026-05-06 17:16 | 55.00970 | 82.66149 | 355 ft | 20 kts | 68° |
| 2026-05-06 17:16 | 55.01001 | 82.66272 | 355 ft | 8 kts | 66° |
| 2026-05-06 17:17 | 55.01024 | 82.66373 | 355 ft | 9 kts | 73° |
| 2026-05-06 17:17 | 55.01015 | 82.66464 | 355 ft | 7 kts | 154° |
| 2026-05-06 17:17 | 55.00970 | 82.66479 | 355 ft | 4 kts | 171° |
| 2026-05-06 17:17 | 55.00950 | 82.66485 | 355 ft | 0 kts | 171° |